sensor_id;sensor_type;location;lat;lon;timestamp;P1;durP1;ratioP1;P2;durP2;ratioP2
79130;SDS011;72396;45.194;9.142;2024-03-08T00:01:39;17.67;;;10.75;;
79130;SDS011;72396;45.194;9.142;2024-03-08T00:04:04;20.00;;;11.25;;
79130;SDS011;72396;45.194;9.142;2024-03-08T00:06:31;20.27;;;10.88;;
79130;SDS011;72396;45.194;9.142;2024-03-08T00:08:57;18.10;;;11.18;;
79130;SDS011;72396;45.194;9.142;2024-03-08T00:11:22;20.52;;;11.02;;
79130;SDS011;72396;45.194;9.142;2024-03-08T00:13:51;20.88;;;11.60;;
79130;SDS011;72396;45.194;9.142;2024-03-08T00:16:17;17.92;;;10.90;;
79130;SDS011;72396;45.194;9.142;2024-03-08T00:18:44;19.67;;;11.13;;
79130;SDS011;72396;45.194;9.142;2024-03-08T00:21:09;18.17;;;11.30;;
79130;SDS011;72396;45.194;9.142;2024-03-08T00:23:36;19.05;;;12.50;;
79130;SDS011;72396;45.194;9.142;2024-03-08T00:26:02;18.48;;;11.38;;
79130;SDS011;72396;45.194;9.142;2024-03-08T00:28:29;18.48;;;12.30;;
79130;SDS011;72396;45.194;9.142;2024-03-08T00:30:55;19.65;;;11.43;;
79130;SDS011;72396;45.194;9.142;2024-03-08T00:33:21;19.30;;;12.07;;
79130;SDS011;72396;45.194;9.142;2024-03-08T00:35:46;23.15;;;11.52;;
79130;SDS011;72396;45.194;9.142;2024-03-08T00:38:12;19.52;;;11.45;;
79130;SDS011;72396;45.194;9.142;2024-03-08T00:40:38;18.13;;;11.77;;
79130;SDS011;72396;45.194;9.142;2024-03-08T00:43:05;22.05;;;13.02;;
79130;SDS011;72396;45.194;9.142;2024-03-08T00:45:31;19.25;;;11.85;;
79130;SDS011;72396;45.194;9.142;2024-03-08T00:47:56;20.88;;;12.35;;
79130;SDS011;72396;45.194;9.142;2024-03-08T00:50:22;22.73;;;11.90;;
79130;SDS011;72396;45.194;9.142;2024-03-08T00:52:47;21.85;;;12.05;;
79130;SDS011;72396;45.194;9.142;2024-03-08T00:55:12;19.00;;;11.00;;
79130;SDS011;72396;45.194;9.142;2024-03-08T00:57:38;19.73;;;11.48;;
79130;SDS011;72396;45.194;9.142;2024-03-08T01:00:04;22.30;;;11.18;;
79130;SDS011;72396;45.194;9.142;2024-03-08T01:02:32;19.55;;;11.27;;
79130;SDS011;72396;45.194;9.142;2024-03-08T01:05:00;18.63;;;11.15;;
79130;SDS011;72396;45.194;9.142;2024-03-08T01:07:25;17.02;;;10.38;;
79130;SDS011;72396;45.194;9.142;2024-03-08T01:09:51;20.30;;;11.45;;
79130;SDS011;72396;45.194;9.142;2024-03-08T01:12:16;18.23;;;10.82;;
79130;SDS011;72396;45.194;9.142;2024-03-08T01:14:42;18.65;;;11.38;;
79130;SDS011;72396;45.194;9.142;2024-03-08T01:17:07;21.90;;;12.02;;
79130;SDS011;72396;45.194;9.142;2024-03-08T01:19:34;20.63;;;11.13;;
79130;SDS011;72396;45.194;9.142;2024-03-08T01:22:00;18.90;;;11.13;;
79130;SDS011;72396;45.194;9.142;2024-03-08T01:24:25;20.55;;;11.48;;
79130;SDS011;72396;45.194;9.142;2024-03-08T01:26:50;19.77;;;11.88;;
79130;SDS011;72396;45.194;9.142;2024-03-08T01:29:16;22.63;;;11.80;;
79130;SDS011;72396;45.194;9.142;2024-03-08T01:31:41;19.65;;;11.95;;
79130;SDS011;72396;45.194;9.142;2024-03-08T01:34:06;20.90;;;12.40;;
79130;SDS011;72396;45.194;9.142;2024-03-08T01:36:32;18.17;;;12.52;;
79130;SDS011;72396;45.194;9.142;2024-03-08T01:38:57;21.00;;;12.80;;
79130;SDS011;72396;45.194;9.142;2024-03-08T01:41:22;18.35;;;12.63;;
79130;SDS011;72396;45.194;9.142;2024-03-08T01:43:48;20.88;;;13.10;;
79130;SDS011;72396;45.194;9.142;2024-03-08T01:46:15;23.83;;;13.45;;
79130;SDS011;72396;45.194;9.142;2024-03-08T01:48:44;19.48;;;12.98;;
79130;SDS011;72396;45.194;9.142;2024-03-08T01:51:10;20.73;;;13.13;;
79130;SDS011;72396;45.194;9.142;2024-03-08T01:53:37;20.05;;;12.60;;
79130;SDS011;72396;45.194;9.142;2024-03-08T01:56:02;21.65;;;12.90;;
79130;SDS011;72396;45.194;9.142;2024-03-08T01:58:28;21.60;;;13.38;;
79130;SDS011;72396;45.194;9.142;2024-03-08T02:00:56;21.60;;;11.52;;
79130;SDS011;72396;45.194;9.142;2024-03-08T02:03:22;21.17;;;13.40;;
79130;SDS011;72396;45.194;9.142;2024-03-08T02:05:47;22.65;;;13.35;;
79130;SDS011;72396;45.194;9.142;2024-03-08T02:08:14;19.55;;;13.07;;
79130;SDS011;72396;45.194;9.142;2024-03-08T02:10:43;23.45;;;13.57;;
79130;SDS011;72396;45.194;9.142;2024-03-08T02:13:10;19.23;;;13.18;;
79130;SDS011;72396;45.194;9.142;2024-03-08T02:18:21;20.83;;;12.70;;
79130;SDS011;72396;45.194;9.142;2024-03-08T02:20:54;21.40;;;13.20;;
79130;SDS011;72396;45.194;9.142;2024-03-08T02:23:20;21.77;;;12.02;;
79130;SDS011;72396;45.194;9.142;2024-03-08T02:25:46;22.45;;;13.23;;
79130;SDS011;72396;45.194;9.142;2024-03-08T02:28:13;18.77;;;12.23;;
79130;SDS011;72396;45.194;9.142;2024-03-08T02:30:39;18.92;;;12.93;;
79130;SDS011;72396;45.194;9.142;2024-03-08T02:33:05;20.90;;;12.95;;
79130;SDS011;72396;45.194;9.142;2024-03-08T02:35:31;20.05;;;13.30;;
79130;SDS011;72396;45.194;9.142;2024-03-08T02:37:57;24.92;;;13.93;;
79130;SDS011;72396;45.194;9.142;2024-03-08T02:40:23;19.85;;;12.45;;
79130;SDS011;72396;45.194;9.142;2024-03-08T02:42:49;18.95;;;11.95;;
79130;SDS011;72396;45.194;9.142;2024-03-08T02:45:14;21.70;;;12.75;;
79130;SDS011;72396;45.194;9.142;2024-03-08T02:47:39;19.15;;;11.65;;
79130;SDS011;72396;45.194;9.142;2024-03-08T02:50:05;22.55;;;12.95;;
79130;SDS011;72396;45.194;9.142;2024-03-08T02:52:33;19.38;;;12.90;;
79130;SDS011;72396;45.194;9.142;2024-03-08T02:54:59;17.95;;;11.90;;
79130;SDS011;72396;45.194;9.142;2024-03-08T02:57:24;18.50;;;12.02;;
79130;SDS011;72396;45.194;9.142;2024-03-08T02:59:49;20.73;;;12.57;;
79130;SDS011;72396;45.194;9.142;2024-03-08T03:02:15;20.85;;;12.25;;
79130;SDS011;72396;45.194;9.142;2024-03-08T03:04:41;23.98;;;12.57;;
79130;SDS011;72396;45.194;9.142;2024-03-08T03:07:07;23.98;;;13.15;;
79130;SDS011;72396;45.194;9.142;2024-03-08T03:09:32;19.20;;;11.70;;
79130;SDS011;72396;45.194;9.142;2024-03-08T03:11:58;19.98;;;12.35;;
79130;SDS011;72396;45.194;9.142;2024-03-08T03:14:24;17.52;;;11.30;;
79130;SDS011;72396;45.194;9.142;2024-03-08T03:16:49;18.17;;;12.27;;
79130;SDS011;72396;45.194;9.142;2024-03-08T03:19:15;21.38;;;11.30;;
79130;SDS011;72396;45.194;9.142;2024-03-08T03:21:40;20.75;;;12.07;;
79130;SDS011;72396;45.194;9.142;2024-03-08T03:24:08;21.33;;;11.43;;
79130;SDS011;72396;45.194;9.142;2024-03-08T03:26:36;21.27;;;12.23;;
79130;SDS011;72396;45.194;9.142;2024-03-08T03:29:04;19.30;;;10.60;;
79130;SDS011;72396;45.194;9.142;2024-03-08T03:31:33;22.88;;;11.88;;
79130;SDS011;72396;45.194;9.142;2024-03-08T03:33:59;17.42;;;10.13;;
79130;SDS011;72396;45.194;9.142;2024-03-08T03:36:29;16.25;;;9.68;;
79130;SDS011;72396;45.194;9.142;2024-03-08T03:38:58;16.90;;;10.57;;
79130;SDS011;72396;45.194;9.142;2024-03-08T03:41:35;17.75;;;9.93;;
79130;SDS011;72396;45.194;9.142;2024-03-08T03:44:00;17.55;;;9.80;;
79130;SDS011;72396;45.194;9.142;2024-03-08T03:46:25;18.50;;;10.43;;
79130;SDS011;72396;45.194;9.142;2024-03-08T03:48:52;18.15;;;9.82;;
79130;SDS011;72396;45.194;9.142;2024-03-08T03:51:18;16.27;;;9.30;;
79130;SDS011;72396;45.194;9.142;2024-03-08T03:53:44;18.50;;;9.55;;
79130;SDS011;72396;45.194;9.142;2024-03-08T03:56:09;19.42;;;8.75;;
79130;SDS011;72396;45.194;9.142;2024-03-08T03:58:35;16.75;;;10.07;;
79130;SDS011;72396;45.194;9.142;2024-03-08T04:01:01;20.45;;;10.38;;
79130;SDS011;72396;45.194;9.142;2024-03-08T04:03:26;15.65;;;9.27;;
79130;SDS011;72396;45.194;9.142;2024-03-08T04:05:52;22.02;;;10.05;;
79130;SDS011;72396;45.194;9.142;2024-03-08T04:08:17;18.27;;;9.80;;
79130;SDS011;72396;45.194;9.142;2024-03-08T04:10:42;18.70;;;9.88;;
79130;SDS011;72396;45.194;9.142;2024-03-08T04:13:08;18.02;;;9.80;;
79130;SDS011;72396;45.194;9.142;2024-03-08T04:15:34;15.55;;;9.68;;
79130;SDS011;72396;45.194;9.142;2024-03-08T04:18:00;17.50;;;9.40;;
79130;SDS011;72396;45.194;9.142;2024-03-08T04:20:25;15.40;;;9.15;;
79130;SDS011;72396;45.194;9.142;2024-03-08T04:22:51;18.60;;;10.05;;
79130;SDS011;72396;45.194;9.142;2024-03-08T04:25:16;19.27;;;9.25;;
79130;SDS011;72396;45.194;9.142;2024-03-08T04:27:42;15.95;;;9.43;;
79130;SDS011;72396;45.194;9.142;2024-03-08T04:30:09;17.33;;;9.93;;
79130;SDS011;72396;45.194;9.142;2024-03-08T04:32:35;17.38;;;9.73;;
79130;SDS011;72396;45.194;9.142;2024-03-08T04:35:00;19.25;;;10.32;;
79130;SDS011;72396;45.194;9.142;2024-03-08T04:37:26;18.48;;;10.45;;
79130;SDS011;72396;45.194;9.142;2024-03-08T04:39:54;20.90;;;11.75;;
79130;SDS011;72396;45.194;9.142;2024-03-08T04:42:20;17.95;;;11.85;;
79130;SDS011;72396;45.194;9.142;2024-03-08T04:44:45;19.67;;;10.35;;
79130;SDS011;72396;45.194;9.142;2024-03-08T04:47:11;21.98;;;10.98;;
79130;SDS011;72396;45.194;9.142;2024-03-08T04:49:36;24.05;;;11.93;;
79130;SDS011;72396;45.194;9.142;2024-03-08T04:52:05;20.40;;;11.02;;
79130;SDS011;72396;45.194;9.142;2024-03-08T04:54:31;21.05;;;11.65;;
79130;SDS011;72396;45.194;9.142;2024-03-08T04:56:57;21.75;;;11.25;;
79130;SDS011;72396;45.194;9.142;2024-03-08T04:59:25;20.02;;;10.63;;
79130;SDS011;72396;45.194;9.142;2024-03-08T05:01:50;19.30;;;11.45;;
79130;SDS011;72396;45.194;9.142;2024-03-08T05:04:16;23.27;;;12.15;;
79130;SDS011;72396;45.194;9.142;2024-03-08T05:06:41;24.95;;;12.20;;
79130;SDS011;72396;45.194;9.142;2024-03-08T05:09:07;23.27;;;13.20;;
79130;SDS011;72396;45.194;9.142;2024-03-08T05:11:42;25.70;;;11.18;;
79130;SDS011;72396;45.194;9.142;2024-03-08T05:14:12;26.13;;;12.43;;
79130;SDS011;72396;45.194;9.142;2024-03-08T05:16:47;24.00;;;12.27;;
79130;SDS011;72396;45.194;9.142;2024-03-08T05:19:18;19.25;;;11.68;;
79130;SDS011;72396;45.194;9.142;2024-03-08T05:21:48;25.00;;;12.65;;
79130;SDS011;72396;45.194;9.142;2024-03-08T05:24:14;23.65;;;12.57;;
79130;SDS011;72396;45.194;9.142;2024-03-08T05:26:41;20.63;;;11.85;;
79130;SDS011;72396;45.194;9.142;2024-03-08T05:29:07;25.00;;;12.60;;
79130;SDS011;72396;45.194;9.142;2024-03-08T05:31:49;22.42;;;11.82;;
79130;SDS011;72396;45.194;9.142;2024-03-08T05:34:17;22.73;;;11.80;;
79130;SDS011;72396;45.194;9.142;2024-03-08T05:36:44;21.83;;;12.07;;
79130;SDS011;72396;45.194;9.142;2024-03-08T05:39:11;24.42;;;12.30;;
79130;SDS011;72396;45.194;9.142;2024-03-08T05:41:40;24.60;;;12.52;;
79130;SDS011;72396;45.194;9.142;2024-03-08T05:44:06;24.15;;;12.32;;
79130;SDS011;72396;45.194;9.142;2024-03-08T05:46:31;24.60;;;13.23;;
79130;SDS011;72396;45.194;9.142;2024-03-08T05:48:57;24.35;;;12.93;;
79130;SDS011;72396;45.194;9.142;2024-03-08T05:51:24;22.17;;;12.10;;
79130;SDS011;72396;45.194;9.142;2024-03-08T05:53:52;24.38;;;13.07;;
79130;SDS011;72396;45.194;9.142;2024-03-08T05:56:19;24.80;;;12.27;;
79130;SDS011;72396;45.194;9.142;2024-03-08T05:58:44;23.73;;;12.15;;
79130;SDS011;72396;45.194;9.142;2024-03-08T06:01:10;28.95;;;13.32;;
79130;SDS011;72396;45.194;9.142;2024-03-08T06:03:37;25.70;;;12.38;;
79130;SDS011;72396;45.194;9.142;2024-03-08T06:06:10;23.52;;;12.27;;
79130;SDS011;72396;45.194;9.142;2024-03-08T06:08:38;23.55;;;12.50;;
79130;SDS011;72396;45.194;9.142;2024-03-08T06:11:04;22.63;;;11.68;;
79130;SDS011;72396;45.194;9.142;2024-03-08T06:13:31;23.85;;;11.98;;
79130;SDS011;72396;45.194;9.142;2024-03-08T06:15:57;22.58;;;11.10;;
79130;SDS011;72396;45.194;9.142;2024-03-08T06:18:22;24.25;;;11.85;;
79130;SDS011;72396;45.194;9.142;2024-03-08T06:20:48;22.10;;;10.27;;
79130;SDS011;72396;45.194;9.142;2024-03-08T06:23:13;22.25;;;10.93;;
79130;SDS011;72396;45.194;9.142;2024-03-08T06:25:43;21.27;;;11.02;;
79130;SDS011;72396;45.194;9.142;2024-03-08T06:28:09;13.88;;;8.45;;
79130;SDS011;72396;45.194;9.142;2024-03-08T06:30:34;17.77;;;9.23;;
79130;SDS011;72396;45.194;9.142;2024-03-08T06:33:00;13.90;;;7.03;;
79130;SDS011;72396;45.194;9.142;2024-03-08T06:35:25;12.57;;;7.50;;
79130;SDS011;72396;45.194;9.142;2024-03-08T06:37:50;11.30;;;7.28;;
79130;SDS011;72396;45.194;9.142;2024-03-08T06:40:16;10.32;;;5.70;;
79130;SDS011;72396;45.194;9.142;2024-03-08T06:42:41;10.65;;;6.90;;
79130;SDS011;72396;45.194;9.142;2024-03-08T06:45:07;14.40;;;6.20;;
79130;SDS011;72396;45.194;9.142;2024-03-08T06:47:34;11.30;;;5.70;;
79130;SDS011;72396;45.194;9.142;2024-03-08T06:50:00;11.02;;;5.85;;
79130;SDS011;72396;45.194;9.142;2024-03-08T06:52:26;10.18;;;5.70;;
79130;SDS011;72396;45.194;9.142;2024-03-08T06:54:51;15.82;;;6.00;;
79130;SDS011;72396;45.194;9.142;2024-03-08T06:57:17;10.48;;;5.60;;
79130;SDS011;72396;45.194;9.142;2024-03-08T06:59:43;9.63;;;6.10;;
79130;SDS011;72396;45.194;9.142;2024-03-08T07:02:09;11.13;;;6.20;;
79130;SDS011;72396;45.194;9.142;2024-03-08T07:04:35;11.25;;;5.97;;
79130;SDS011;72396;45.194;9.142;2024-03-08T07:07:03;11.73;;;5.47;;
79130;SDS011;72396;45.194;9.142;2024-03-08T07:09:29;10.52;;;6.43;;
79130;SDS011;72396;45.194;9.142;2024-03-08T07:11:54;13.23;;;6.88;;
79130;SDS011;72396;45.194;9.142;2024-03-08T07:14:21;11.25;;;6.60;;
79130;SDS011;72396;45.194;9.142;2024-03-08T07:16:47;13.18;;;6.40;;
79130;SDS011;72396;45.194;9.142;2024-03-08T07:19:12;15.50;;;7.22;;
79130;SDS011;72396;45.194;9.142;2024-03-08T07:21:38;14.38;;;7.40;;
79130;SDS011;72396;45.194;9.142;2024-03-08T07:24:03;14.02;;;7.07;;
79130;SDS011;72396;45.194;9.142;2024-03-08T07:26:46;48.63;;;10.73;;
79130;SDS011;72396;45.194;9.142;2024-03-08T07:29:15;15.05;;;7.70;;
79130;SDS011;72396;45.194;9.142;2024-03-08T07:31:41;16.65;;;9.35;;
79130;SDS011;72396;45.194;9.142;2024-03-08T07:34:06;21.98;;;9.68;;
79130;SDS011;72396;45.194;9.142;2024-03-08T07:36:33;18.52;;;9.68;;
79130;SDS011;72396;45.194;9.142;2024-03-08T07:38:59;17.60;;;9.15;;
79130;SDS011;72396;45.194;9.142;2024-03-08T07:41:25;18.00;;;8.95;;
79130;SDS011;72396;45.194;9.142;2024-03-08T07:43:50;24.13;;;10.40;;
79130;SDS011;72396;45.194;9.142;2024-03-08T07:46:17;20.15;;;9.13;;
79130;SDS011;72396;45.194;9.142;2024-03-08T07:48:43;20.30;;;10.50;;
79130;SDS011;72396;45.194;9.142;2024-03-08T07:51:09;20.30;;;10.32;;
79130;SDS011;72396;45.194;9.142;2024-03-08T07:53:37;25.25;;;11.45;;
79130;SDS011;72396;45.194;9.142;2024-03-08T07:56:03;20.10;;;10.68;;
79130;SDS011;72396;45.194;9.142;2024-03-08T07:58:30;25.02;;;11.38;;
79130;SDS011;72396;45.194;9.142;2024-03-08T08:00:55;25.45;;;11.65;;
79130;SDS011;72396;45.194;9.142;2024-03-08T08:03:21;21.55;;;10.95;;
79130;SDS011;72396;45.194;9.142;2024-03-08T08:05:46;26.13;;;11.48;;
79130;SDS011;72396;45.194;9.142;2024-03-08T08:08:12;24.63;;;10.98;;
79130;SDS011;72396;45.194;9.142;2024-03-08T08:10:37;23.58;;;11.35;;
79130;SDS011;72396;45.194;9.142;2024-03-08T08:13:03;24.35;;;11.55;;
79130;SDS011;72396;45.194;9.142;2024-03-08T08:15:31;23.33;;;11.45;;
79130;SDS011;72396;45.194;9.142;2024-03-08T08:17:59;22.77;;;11.30;;
79130;SDS011;72396;45.194;9.142;2024-03-08T08:20:25;24.50;;;11.85;;
79130;SDS011;72396;45.194;9.142;2024-03-08T08:22:51;23.55;;;12.05;;
79130;SDS011;72396;45.194;9.142;2024-03-08T08:25:17;22.20;;;11.50;;
79130;SDS011;72396;45.194;9.142;2024-03-08T08:27:45;21.42;;;11.20;;
79130;SDS011;72396;45.194;9.142;2024-03-08T08:30:11;22.48;;;11.18;;
79130;SDS011;72396;45.194;9.142;2024-03-08T08:32:38;24.77;;;12.15;;
79130;SDS011;72396;45.194;9.142;2024-03-08T08:35:04;25.58;;;11.65;;
79130;SDS011;72396;45.194;9.142;2024-03-08T08:37:31;24.13;;;11.95;;
79130;SDS011;72396;45.194;9.142;2024-03-08T08:39:57;23.10;;;9.95;;
79130;SDS011;72396;45.194;9.142;2024-03-08T08:42:23;22.77;;;10.57;;
79130;SDS011;72396;45.194;9.142;2024-03-08T08:44:49;22.92;;;10.85;;
79130;SDS011;72396;45.194;9.142;2024-03-08T08:47:15;24.60;;;12.32;;
79130;SDS011;72396;45.194;9.142;2024-03-08T08:49:43;19.98;;;10.32;;
79130;SDS011;72396;45.194;9.142;2024-03-08T08:52:12;19.02;;;9.90;;
79130;SDS011;72396;45.194;9.142;2024-03-08T08:54:38;21.92;;;10.95;;
79130;SDS011;72396;45.194;9.142;2024-03-08T08:57:03;22.77;;;11.02;;
79130;SDS011;72396;45.194;9.142;2024-03-08T08:59:32;23.15;;;10.57;;
79130;SDS011;72396;45.194;9.142;2024-03-08T09:02:02;21.70;;;11.25;;
79130;SDS011;72396;45.194;9.142;2024-03-08T09:04:28;23.73;;;10.80;;
79130;SDS011;72396;45.194;9.142;2024-03-08T09:06:54;22.15;;;10.93;;
79130;SDS011;72396;45.194;9.142;2024-03-08T09:09:19;23.60;;;11.32;;
79130;SDS011;72396;45.194;9.142;2024-03-08T09:11:47;20.75;;;10.40;;
79130;SDS011;72396;45.194;9.142;2024-03-08T09:14:12;21.05;;;10.95;;
79130;SDS011;72396;45.194;9.142;2024-03-08T09:16:37;20.77;;;10.93;;
79130;SDS011;72396;45.194;9.142;2024-03-08T09:19:03;25.00;;;11.55;;
79130;SDS011;72396;45.194;9.142;2024-03-08T09:21:28;20.63;;;11.68;;
79130;SDS011;72396;45.194;9.142;2024-03-08T09:23:55;22.75;;;11.20;;
79130;SDS011;72396;45.194;9.142;2024-03-08T09:26:20;21.20;;;11.88;;
79130;SDS011;72396;45.194;9.142;2024-03-08T09:28:47;25.02;;;12.52;;
79130;SDS011;72396;45.194;9.142;2024-03-08T09:31:12;21.25;;;11.23;;
79130;SDS011;72396;45.194;9.142;2024-03-08T09:33:38;22.98;;;12.18;;
79130;SDS011;72396;45.194;9.142;2024-03-08T09:36:04;21.52;;;12.35;;
79130;SDS011;72396;45.194;9.142;2024-03-08T09:38:32;24.75;;;11.88;;
79130;SDS011;72396;45.194;9.142;2024-03-08T09:40:59;26.98;;;11.45;;
79130;SDS011;72396;45.194;9.142;2024-03-08T09:43:26;24.63;;;12.40;;
79130;SDS011;72396;45.194;9.142;2024-03-08T09:45:53;26.35;;;12.35;;
79130;SDS011;72396;45.194;9.142;2024-03-08T09:48:20;26.85;;;12.68;;
79130;SDS011;72396;45.194;9.142;2024-03-08T09:50:47;24.33;;;12.90;;
79130;SDS011;72396;45.194;9.142;2024-03-08T09:53:13;25.92;;;13.18;;
79130;SDS011;72396;45.194;9.142;2024-03-08T09:55:38;21.23;;;11.75;;
79130;SDS011;72396;45.194;9.142;2024-03-08T09:58:13;24.40;;;12.15;;
79130;SDS011;72396;45.194;9.142;2024-03-08T10:01:09;23.58;;;12.70;;
79130;SDS011;72396;45.194;9.142;2024-03-08T10:03:34;26.15;;;12.23;;
79130;SDS011;72396;45.194;9.142;2024-03-08T10:06:00;24.98;;;12.05;;
79130;SDS011;72396;45.194;9.142;2024-03-08T10:08:28;20.67;;;11.10;;
79130;SDS011;72396;45.194;9.142;2024-03-08T10:10:54;23.27;;;11.13;;
79130;SDS011;72396;45.194;9.142;2024-03-08T10:13:21;21.42;;;10.93;;
79130;SDS011;72396;45.194;9.142;2024-03-08T10:15:49;23.13;;;10.93;;
79130;SDS011;72396;45.194;9.142;2024-03-08T10:18:16;19.48;;;11.00;;
79130;SDS011;72396;45.194;9.142;2024-03-08T10:20:42;20.67;;;10.25;;
79130;SDS011;72396;45.194;9.142;2024-03-08T10:23:08;20.98;;;10.77;;
79130;SDS011;72396;45.194;9.142;2024-03-08T10:25:35;19.98;;;10.75;;
79130;SDS011;72396;45.194;9.142;2024-03-08T10:28:04;16.95;;;9.10;;
79130;SDS011;72396;45.194;9.142;2024-03-08T10:30:30;19.27;;;9.93;;
79130;SDS011;72396;45.194;9.142;2024-03-08T10:32:56;18.70;;;9.23;;
79130;SDS011;72396;45.194;9.142;2024-03-08T10:35:21;24.00;;;10.10;;
79130;SDS011;72396;45.194;9.142;2024-03-08T10:37:48;19.58;;;9.75;;
79130;SDS011;72396;45.194;9.142;2024-03-08T10:40:18;19.77;;;9.75;;
79130;SDS011;72396;45.194;9.142;2024-03-08T10:42:57;21.15;;;9.07;;
79130;SDS011;72396;45.194;9.142;2024-03-08T10:50:48;17.38;;;9.13;;
79130;SDS011;72396;45.194;9.142;2024-03-08T10:53:15;17.73;;;9.48;;
79130;SDS011;72396;45.194;9.142;2024-03-08T10:55:43;19.08;;;10.23;;
79130;SDS011;72396;45.194;9.142;2024-03-08T10:58:09;17.10;;;9.48;;
79130;SDS011;72396;45.194;9.142;2024-03-08T11:00:35;19.02;;;8.70;;
79130;SDS011;72396;45.194;9.142;2024-03-08T11:03:02;16.63;;;8.48;;
79130;SDS011;72396;45.194;9.142;2024-03-08T11:05:40;18.35;;;9.52;;
79130;SDS011;72396;45.194;9.142;2024-03-08T11:10:50;17.85;;;10.15;;
79130;SDS011;72396;45.194;9.142;2024-03-08T11:13:34;16.45;;;8.52;;
79130;SDS011;72396;45.194;9.142;2024-03-08T11:16:01;17.10;;;8.88;;
79130;SDS011;72396;45.194;9.142;2024-03-08T11:18:32;17.23;;;9.05;;
79130;SDS011;72396;45.194;9.142;2024-03-08T11:21:02;17.02;;;8.73;;
79130;SDS011;72396;45.194;9.142;2024-03-08T11:23:30;18.25;;;8.80;;
79130;SDS011;72396;45.194;9.142;2024-03-08T11:25:56;18.08;;;9.13;;
79130;SDS011;72396;45.194;9.142;2024-03-08T11:28:24;18.45;;;9.27;;
79130;SDS011;72396;45.194;9.142;2024-03-08T11:33:30;17.48;;;8.95;;
79130;SDS011;72396;45.194;9.142;2024-03-08T11:38:48;16.27;;;8.77;;
79130;SDS011;72396;45.194;9.142;2024-03-08T11:41:23;17.02;;;9.10;;
79130;SDS011;72396;45.194;9.142;2024-03-08T11:43:50;18.13;;;8.68;;
79130;SDS011;72396;45.194;9.142;2024-03-08T11:46:30;18.02;;;9.38;;
79130;SDS011;72396;45.194;9.142;2024-03-08T11:48:55;17.60;;;8.65;;
79130;SDS011;72396;45.194;9.142;2024-03-08T11:51:21;18.30;;;9.40;;
79130;SDS011;72396;45.194;9.142;2024-03-08T11:53:49;15.55;;;8.95;;
79130;SDS011;72396;45.194;9.142;2024-03-08T11:56:15;17.05;;;8.48;;
79130;SDS011;72396;45.194;9.142;2024-03-08T11:58:41;15.57;;;7.50;;
79130;SDS011;72396;45.194;9.142;2024-03-08T12:01:08;15.90;;;8.45;;
79130;SDS011;72396;45.194;9.142;2024-03-08T12:03:42;16.30;;;8.57;;
79130;SDS011;72396;45.194;9.142;2024-03-08T12:06:08;15.15;;;8.38;;
79130;SDS011;72396;45.194;9.142;2024-03-08T12:08:35;16.13;;;8.38;;
79130;SDS011;72396;45.194;9.142;2024-03-08T12:11:01;15.57;;;8.40;;
79130;SDS011;72396;45.194;9.142;2024-03-08T12:13:27;15.55;;;7.50;;
79130;SDS011;72396;45.194;9.142;2024-03-08T12:15:59;13.98;;;8.00;;
79130;SDS011;72396;45.194;9.142;2024-03-08T12:18:37;15.52;;;7.85;;
79130;SDS011;72396;45.194;9.142;2024-03-08T12:21:12;14.95;;;7.43;;
79130;SDS011;72396;45.194;9.142;2024-03-08T12:26:34;13.73;;;7.45;;
79130;SDS011;72396;45.194;9.142;2024-03-08T12:29:17;15.90;;;8.18;;
79130;SDS011;72396;45.194;9.142;2024-03-08T12:31:51;14.93;;;8.27;;
79130;SDS011;72396;45.194;9.142;2024-03-08T12:34:18;15.10;;;8.65;;
79130;SDS011;72396;45.194;9.142;2024-03-08T12:36:51;15.07;;;8.95;;
79130;SDS011;72396;45.194;9.142;2024-03-08T12:39:19;16.85;;;8.85;;
79130;SDS011;72396;45.194;9.142;2024-03-08T12:41:51;15.38;;;8.07;;
79130;SDS011;72396;45.194;9.142;2024-03-08T12:44:22;14.80;;;8.32;;
79130;SDS011;72396;45.194;9.142;2024-03-08T12:46:47;14.18;;;7.63;;
79130;SDS011;72396;45.194;9.142;2024-03-08T12:49:13;13.80;;;7.90;;
79130;SDS011;72396;45.194;9.142;2024-03-08T12:51:43;14.55;;;7.78;;
79130;SDS011;72396;45.194;9.142;2024-03-08T12:54:09;18.45;;;8.43;;
79130;SDS011;72396;45.194;9.142;2024-03-08T12:56:35;14.02;;;7.75;;
79130;SDS011;72396;45.194;9.142;2024-03-08T12:59:02;14.02;;;7.40;;
79130;SDS011;72396;45.194;9.142;2024-03-08T13:01:32;14.23;;;7.88;;
79130;SDS011;72396;45.194;9.142;2024-03-08T13:03:59;11.63;;;7.25;;
79130;SDS011;72396;45.194;9.142;2024-03-08T13:06:26;13.07;;;7.45;;
79130;SDS011;72396;45.194;9.142;2024-03-08T13:08:53;13.10;;;7.10;;
79130;SDS011;72396;45.194;9.142;2024-03-08T13:11:20;12.82;;;8.13;;
79130;SDS011;72396;45.194;9.142;2024-03-08T13:13:46;13.30;;;7.75;;
79130;SDS011;72396;45.194;9.142;2024-03-08T13:16:11;12.38;;;7.40;;
79130;SDS011;72396;45.194;9.142;2024-03-08T13:18:40;14.68;;;7.68;;
79130;SDS011;72396;45.194;9.142;2024-03-08T13:21:09;11.40;;;6.68;;
79130;SDS011;72396;45.194;9.142;2024-03-08T13:23:36;13.60;;;7.03;;
79130;SDS011;72396;45.194;9.142;2024-03-08T13:26:08;13.00;;;6.90;;
79130;SDS011;72396;45.194;9.142;2024-03-08T13:28:35;13.63;;;7.03;;
79130;SDS011;72396;45.194;9.142;2024-03-08T13:31:03;15.20;;;7.40;;
79130;SDS011;72396;45.194;9.142;2024-03-08T13:33:32;11.90;;;7.03;;
79130;SDS011;72396;45.194;9.142;2024-03-08T13:36:01;10.05;;;6.28;;
79130;SDS011;72396;45.194;9.142;2024-03-08T13:38:27;13.82;;;6.80;;
79130;SDS011;72396;45.194;9.142;2024-03-08T13:40:52;12.25;;;6.78;;
79130;SDS011;72396;45.194;9.142;2024-03-08T13:43:18;12.25;;;6.80;;
79130;SDS011;72396;45.194;9.142;2024-03-08T13:45:43;11.23;;;7.03;;
79130;SDS011;72396;45.194;9.142;2024-03-08T13:48:09;13.82;;;6.85;;
79130;SDS011;72396;45.194;9.142;2024-03-08T13:50:37;11.63;;;6.68;;
79130;SDS011;72396;45.194;9.142;2024-03-08T13:53:03;12.48;;;6.82;;
79130;SDS011;72396;45.194;9.142;2024-03-08T13:55:29;12.98;;;6.63;;
79130;SDS011;72396;45.194;9.142;2024-03-08T13:57:55;12.82;;;6.95;;
79130;SDS011;72396;45.194;9.142;2024-03-08T14:00:22;13.65;;;6.95;;
79130;SDS011;72396;45.194;9.142;2024-03-08T14:02:49;11.00;;;6.22;;
79130;SDS011;72396;45.194;9.142;2024-03-08T14:05:15;11.15;;;7.50;;
79130;SDS011;72396;45.194;9.142;2024-03-08T14:07:41;13.32;;;6.53;;
79130;SDS011;72396;45.194;9.142;2024-03-08T14:10:06;13.40;;;6.72;;
79130;SDS011;72396;45.194;9.142;2024-03-08T14:12:34;12.25;;;6.65;;
79130;SDS011;72396;45.194;9.142;2024-03-08T14:15:00;12.15;;;6.15;;
79130;SDS011;72396;45.194;9.142;2024-03-08T14:17:26;11.05;;;6.53;;
79130;SDS011;72396;45.194;9.142;2024-03-08T14:19:52;11.23;;;6.57;;
79130;SDS011;72396;45.194;9.142;2024-03-08T14:22:19;13.02;;;6.93;;
79130;SDS011;72396;45.194;9.142;2024-03-08T14:24:45;13.15;;;6.22;;
79130;SDS011;72396;45.194;9.142;2024-03-08T14:27:10;9.75;;;6.47;;
79130;SDS011;72396;45.194;9.142;2024-03-08T14:29:37;13.07;;;6.63;;
79130;SDS011;72396;45.194;9.142;2024-03-08T14:32:04;11.35;;;6.43;;
79130;SDS011;72396;45.194;9.142;2024-03-08T14:34:31;11.73;;;6.72;;
79130;SDS011;72396;45.194;9.142;2024-03-08T14:37:00;10.98;;;6.75;;
79130;SDS011;72396;45.194;9.142;2024-03-08T14:39:26;11.68;;;6.63;;
79130;SDS011;72396;45.194;9.142;2024-03-08T14:41:54;12.07;;;6.32;;
79130;SDS011;72396;45.194;9.142;2024-03-08T14:44:20;11.00;;;6.15;;